Latest Weather Observations for Casterton

IDV60801

Issued at 11:35 pm EST Monday 1 September 2014 (issued every 30 minutes, with the page automatically refreshed every 10 minutes)

About weather observations | Map of weather stations | Latest weather observations for VIC | Other Formats
Station Details ID: 090182 Name: CASTERTON Lat: -37.58 Lon: 141.33 Height: 130.6 m
Data from the previous 72 hours. | See also: Recent months at Casterton
Date/Time
EST
Temp
°C
App
Temp
°C
Dew
Point
Rel
Hum
%
Delta-T
°C
Wind Press
QNH
hPa
Press
MSL
hPa
Rain
since 9 am
mm
Dir
 
Spd
km/h
Gust
km/h
Spd
kts
Gust
kts
01/11:30pm 5.2 4.1 5.1 99 0.0 WSW 0 0 0 0 1015.5 - 5.4
01/11:00pm 5.6 4.6 5.5 99 0.0 SW 0 0 0 0 1015.4 - 5.4
01/10:30pm 5.2 2.7 4.9 98 0.1 W 7 9 4 5 1015.2 - 5.4
01/10:00pm 6.1 3.8 5.8 98 0.1 SW 7 7 4 4 1015.0 - 5.4
01/09:30pm 7.1 4.7 6.8 98 0.1 W 9 13 5 7 1014.7 - 5.4
01/09:00pm 6.7 3.8 6.4 98 0.1 W 11 17 6 9 1014.4 1014.5 5.4
01/08:30pm 6.3 4.2 6.0 98 0.1 W 6 7 3 4 1014.2 - 5.4
01/08:00pm 6.9 4.8 6.6 98 0.1 W 7 9 4 5 1014.0 - 5.4
01/07:30pm 8.4 5.0 7.6 95 0.4 WSW 15 20 8 11 1013.5 - 5.4
01/07:00pm 8.2 5.6 7.9 98 0.1 WSW 11 15 6 8 1013.1 - 5.4
01/06:30pm 8.8 6.4 8.5 98 0.1 WSW 11 15 6 8 1012.7 - 5.4
01/06:00pm 9.9 7.8 9.6 98 0.2 W 11 15 6 8 1012.2 1012.3 5.4
01/05:30pm 10.4 8.0 10.1 98 0.2 WSW 13 17 7 9 1011.8 - 5.2
01/05:00pm 10.4 8.4 10.1 98 0.2 WSW 11 15 6 8 1011.3 - 5.2
01/04:30pm 10.6 7.9 10.3 98 0.2 SW 15 20 8 11 1011.1 - 5.2
01/04:00pm 10.7 8.4 10.4 98 0.2 WSW 13 19 7 10 1010.6 - 4.8
01/03:30pm 10.2 7.8 9.9 98 0.2 WSW 13 22 7 12 1010.6 - 4.8
01/03:13pm 10.2 4.4 8.1 87 1.0 WSW 28 44 15 24 1010.6 - 4.4
01/03:00pm 13.5 9.5 8.4 71 2.6 WSW 19 24 10 13 1010.1 1010.2 4.4
01/02:30pm 12.3 8.0 7.8 74 2.2 WSW 20 30 11 16 1009.9 - 4.4
01/02:00pm 12.4 10.3 9.8 84 1.3 WSW 11 15 6 8 1009.9 - 4.4
01/01:30pm 10.4 9.1 9.9 97 0.3 SW 7 13 4 7 1009.9 - 4.4
01/01:00pm 9.4 7.9 9.1 98 0.1 SSW 7 13 4 7 1010.2 - 4.4
01/12:30pm 8.6 4.1 8.5 99 0.0 SW 22 32 12 17 1010.7 - 2.8
01/12:08pm 8.8 2.2 8.5 98 0.1 WSW 33 52 18 28 1010.5 - 0.8
01/12:00pm 10.5 3.0 9.4 93 0.6 WSW 39 52 21 28 1010.1 1010.2 0.2
01/11:30am 12.6 9.6 9.2 80 1.7 WSW 15 20 8 11 1009.9 - 0.0
01/11:00am 12.9 11.2 11.1 89 1.0 SSW 11 17 6 9 1009.9 - 0.0
01/10:30am 12.0 9.9 11.2 95 0.4 WSW 13 19 7 10 1010.1 - 0.0
01/10:00am 12.1 9.8 11.8 98 0.2 SW 15 20 8 11 1010.1 - 0.0
01/09:30am 10.3 7.5 10.1 99 0.1 WSW 15 19 8 10 1009.7 - 0.0
01/09:00am 10.6 7.9 10.4 99 0.1 SW 15 20 8 11 1009.4 1009.5 8.2
01/08:30am 10.9 7.9 10.7 99 0.1 SW 17 28 9 15 1009.3 - 8.2
01/08:00am 10.9 8.7 10.7 99 0.1 WSW 13 17 7 9 1008.9 - 8.2
01/07:30am 11.2 9.1 11.0 99 0.1 W 13 19 7 10 1008.4 - 7.8
01/07:00am 11.3 8.5 11.3 100 0.0 WNW 17 24 9 13 1008.2 - 7.8
01/06:30am 11.4 9.3 11.2 99 0.1 NNW 13 20 7 11 1008.0 - 4.8
01/06:00am 11.3 9.2 11.1 99 0.1 NNW 13 17 7 9 1007.9 1008.0 4.2
01/05:30am 11.2 9.8 11.0 99 0.1 NNW 9 13 5 7 1007.9 - 4.2
01/05:00am 11.1 9.3 10.9 99 0.1 NNW 11 15 6 8 1007.4 - 4.2
01/04:30am 11.3 9.2 11.3 100 0.0 NW 13 17 7 9 1007.6 - 4.2
01/04:00am 11.5 9.9 11.5 100 0.0 NW 11 17 6 9 1007.6 - 4.0
01/03:30am 11.5 9.8 11.3 99 0.1 NW 11 17 6 9 1007.8 - 3.0
01/03:00am 11.4 9.7 11.2 99 0.1 WNW 11 15 6 8 1007.8 1007.9 2.0
01/02:30am 11.5 9.1 11.3 99 0.1 WNW 15 22 8 12 1008.2 - 1.4
01/02:00am 11.7 8.9 11.4 98 0.2 WNW 17 28 9 15 1008.6 - 0.2
01/01:30am 12.7 9.5 8.6 76 2.1 NW 15 24 8 13 1008.4 - 0.0
01/01:00am 12.9 10.3 7.6 70 2.6 WNW 11 17 6 9 1007.7 - 0.0
01/12:30am 14.1 9.5 6.7 61 3.6 W 20 28 11 15 1007.9 - 0.0
01/12:00am 14.4 10.8 6.7 60 3.8 NNW 15 28 8 15 1007.8 1007.9 0.0
 
Date/Time
EST
Temp
°C
App
Temp
°C
Dew
Point
Rel
Hum
%
Delta-T
°C
Wind Press
QNH
hPa
Press
MSL
hPa
Rain
since 9 am
mm
Dir
 
Spd
km/h
Gust
km/h
Spd
kts
Gust
kts
31/11:30pm 13.8 11.3 6.7 62 3.5 N 9 19 5 10 1007.6 - 0.0
31/11:00pm 13.3 10.8 6.4 63 3.3 N 9 13 5 7 1007.9 - 0.0
31/10:30pm 12.5 10.3 6.3 66 3.0 N 7 11 4 6 1008.2 - 0.0
31/10:00pm 12.6 10.5 6.6 67 2.9 N 7 9 4 5 1008.8 - 0.0
31/09:30pm 13.0 11.3 6.1 63 3.3 W 4 7 2 4 1009.1 - 0.0
31/09:00pm 13.4 11.7 5.8 60 3.6 WNW 4 9 2 5 1009.3 1009.5 0.0
31/08:30pm 13.9 12.8 5.3 56 4.1 CALM 0 0 0 0 1009.5 - 0.0
31/08:00pm 13.7 11.4 5.8 59 3.8 WNW 7 11 4 6 1009.7 - 0.0
31/07:30pm 14.7 12.2 4.7 51 4.7 N 7 11 4 6 1009.5 - 0.0
31/07:00pm 15.1 11.8 4.8 50 4.9 NW 11 15 6 8 1009.6 - 0.0
31/06:30pm 16.2 13.3 4.6 46 5.5 N 9 13 5 7 1008.9 - 0.0
31/06:00pm 18.1 14.3 3.9 39 6.7 N 13 20 7 11 1008.8 1009.0 0.0
31/05:30pm 16.9 14.0 6.4 50 5.2 N 11 15 6 8 1009.4 - 0.0
31/05:00pm 17.5 14.7 7.0 50 5.3 N 11 17 6 9 1009.7 - 0.0
31/04:30pm 18.3 14.2 6.2 45 6.0 N 17 22 9 12 1010.1 - 0.0
31/04:00pm 19.0 14.8 5.8 42 6.5 N 17 26 9 14 1010.2 - 0.0
31/03:30pm 19.8 14.6 5.5 39 7.1 N 22 30 12 16 1010.2 - 0.0
31/03:00pm 19.8 14.2 5.5 39 7.1 N 24 35 13 19 1010.6 1010.8 0.0
31/02:30pm 19.6 14.7 5.3 39 7.0 NNW 20 35 11 19 1010.8 - 0.0
31/02:00pm 19.6 15.3 7.7 46 6.1 N 20 30 11 16 1011.3 - 0.0
31/01:30pm 19.8 14.6 7.2 44 6.4 N 24 35 13 19 1011.7 - 0.0
31/01:00pm 19.8 15.6 7.5 45 6.3 N 19 28 10 15 1012.1 - 0.0
31/12:30pm 19.4 16.0 7.5 46 6.1 N 15 24 8 13 1012.7 - 0.0
31/12:00pm 18.9 15.1 7.7 48 5.8 N 17 28 9 15 1013.3 1013.5 0.0
31/11:30am 17.7 14.4 8.0 53 5.0 N 15 22 8 12 1013.8 - 0.0
31/11:00am 17.2 12.7 7.0 51 5.1 N 20 30 11 16 1014.2 - 0.0
31/10:30am 15.8 12.0 7.6 58 4.1 NNE 17 22 9 12 1014.3 - 0.0
31/10:00am 14.3 10.6 6.4 59 3.8 N 15 24 8 13 1014.8 - 0.0
31/09:30am 13.4 8.9 6.3 62 3.4 NNE 19 24 10 13 1015.1 - 0.0
31/09:00am 13.0 8.1 5.2 59 3.6 N 20 30 11 16 1015.2 1015.4 0.0
31/08:30am 12.5 7.9 5.4 62 3.3 N 19 28 10 15 1015.3 - 0.0
31/08:00am 12.5 8.2 5.4 62 3.3 N 17 26 9 14 1015.5 - 0.0
31/07:30am 12.2 7.9 5.1 62 3.3 N 17 26 9 14 1015.7 - 0.0
31/07:00am 11.9 7.9 5.1 63 3.1 N 15 24 8 13 1015.6 - 0.0
31/06:30am 11.7 7.8 5.3 65 3.0 N 15 20 8 11 1015.5 - 0.0
31/06:00am 11.1 6.8 5.2 67 2.7 N 17 24 9 13 1015.5 1015.7 0.0
31/05:30am 10.3 7.5 5.3 71 2.3 N 9 13 5 7 1015.7 - 0.0
31/05:00am 10.6 7.7 4.9 68 2.6 N 9 13 5 7 1015.8 - 0.0
31/04:30am 11.3 8.2 5.6 68 2.7 N 11 17 6 9 1016.0 - 0.0
31/04:00am 11.8 8.3 5.4 65 3.0 NNE 13 17 7 9 1015.9 - 0.0
31/03:30am 12.0 8.6 5.9 66 2.9 NNE 13 24 7 13 1015.9 - 0.0
31/03:00am 12.3 9.2 5.5 63 3.2 NNE 11 13 6 7 1016.4 1016.6 0.0
31/02:30am 13.4 9.2 5.8 60 3.6 NNE 17 22 9 12 1016.7 - 0.0
31/02:00am 12.7 9.0 6.3 65 3.1 NNE 15 20 8 11 1016.9 - 0.0
31/01:30am 12.4 8.7 6.5 67 2.8 NNE 15 19 8 10 1017.3 - 0.0
31/01:00am 12.7 9.2 7.0 68 2.8 NE 15 22 8 12 1017.5 - 0.0
31/12:30am 12.2 9.2 7.7 74 2.2 NNE 13 20 7 11 1017.8 - 0.0
31/12:00am 11.5 9.0 8.0 79 1.7 NE 11 15 6 8 1018.0 1018.2 0.0
 
Date/Time
EST
Temp
°C
App
Temp
°C
Dew
Point
Rel
Hum
%
Delta-T
°C
Wind Press
QNH
hPa
Press
MSL
hPa
Rain
since 9 am
mm
Dir
 
Spd
km/h
Gust
km/h
Spd
kts
Gust
kts
30/11:30pm 11.2 8.7 8.2 82 1.5 NE 11 15 6 8 1018.4 - 0.0
30/11:00pm 10.9 9.1 7.8 81 1.5 NE 7 11 4 6 1018.5 - 0.0
30/10:30pm 11.6 9.2 8.5 81 1.5 NE 11 13 6 7 1018.7 - 0.0
30/10:00pm 11.6 9.2 8.8 83 1.4 NE 11 11 6 6 1019.2 - 0.0
30/09:30pm 11.4 9.5 9.1 86 1.2 NE 9 11 5 6 1019.6 - 0.0
30/09:00pm 11.8 10.0 9.4 85 1.2 NE 9 11 5 6 1019.7 1020.0 0.0
30/08:30pm 12.4 11.1 10.1 86 1.2 NE 7 9 4 5 1019.8 - 0.0
30/08:00pm 11.5 10.5 11.0 97 0.3 NE 7 7 4 4 1020.0 - 0.0
30/07:30pm 12.9 12.1 11.1 89 1.0 NNE 6 7 3 4 1019.9 - 0.0
30/07:00pm 13.9 12.6 10.1 78 2.0 NE 7 9 4 5 1019.8 - 0.0
30/06:30pm 15.0 13.8 10.4 74 2.4 NE 7 9 4 5 1019.8 - 0.0
30/06:00pm 16.8 16.0 10.9 68 3.2 NE 6 7 3 4 1019.7 1020.0 0.0
30/05:30pm 17.4 16.3 10.8 65 3.6 NE 7 11 4 6 1019.6 - 0.0
30/05:00pm 19.6 17.8 9.5 52 5.4 N 9 13 5 7 1019.7 - 0.0
30/04:30pm 20.3 18.4 8.9 48 6.0 NNE 9 13 5 7 1019.7 - 0.0
30/04:00pm 20.6 18.6 10.1 51 5.7 NNE 11 15 6 8 1019.8 - 0.0
30/03:30pm 20.6 18.6 10.1 51 5.7 N 11 17 6 9 1020.0 - 0.0
30/03:00pm 20.4 17.8 9.3 49 5.9 N 13 19 7 10 1020.3 1020.5 0.0
30/02:30pm 20.3 17.4 8.3 46 6.3 N 13 20 7 11 1020.6 - 0.0
30/02:00pm 20.3 17.9 10.1 52 5.5 NNW 13 17 7 9 1021.0 - 0.0
30/01:30pm 19.6 17.6 10.3 55 5.0 N 11 15 6 8 1021.4 - 0.0
30/01:00pm 19.0 17.2 10.8 59 4.5 N 11 19 6 10 1021.9 - 0.0
30/12:30pm 18.3 16.1 9.4 56 4.7 N 11 17 6 9 1022.2 - 0.0
30/12:00pm 17.4 14.4 9.3 59 4.2 N 15 19 8 10 1022.7 1022.9 0.0
30/11:30am 17.0 14.6 9.9 63 3.8 N 13 20 7 11 1023.1 - 0.0
30/11:00am 15.8 13.7 9.9 68 3.1 N 11 15 6 8 1023.3 - 0.0
30/10:30am 14.4 11.5 9.6 73 2.5 N 15 19 8 10 1023.5 - 0.0
30/10:00am 13.2 11.1 9.6 79 1.9 NNE 11 17 6 9 1023.9 - 0.0
30/09:30am 11.8 10.0 10.9 94 0.5 NE 11 13 6 7 1024.0 - 0.0
30/09:00am 10.0 7.9 9.9 99 0.1 NE 11 13 6 7 1024.1 1024.3 0.0
30/08:30am 8.2 6.5 8.2 100 0.0 NE 7 11 4 6 1024.2 - 0.0
30/08:00am 6.6 4.1 6.6 100 0.0 NE 9 11 5 6 1024.3 - 0.0
30/07:30am 4.4 1.5 4.4 100 0.0 NE 9 11 5 6 1024.4 - 0.0
30/07:00am 3.3 1.8 3.2 99 0.0 CALM 0 0 0 0 1024.4 - 0.0
30/06:30am 4.1 1.6 4.0 99 0.0 NE 6 7 3 4 1024.3 - 0.0
30/06:00am 4.6 2.2 4.5 99 0.0 NE 6 7 3 4 1024.3 1024.5 0.0
30/05:30am 5.2 2.8 5.1 99 0.0 NE 7 7 4 4 1024.0 - 0.0
30/05:00am 5.9 3.8 5.8 99 0.0 NE 6 7 3 4 1023.8 - 0.0
30/04:30am 5.7 3.6 5.6 99 0.0 ENE 6 7 3 4 1023.9 - 0.0
30/04:00am 6.2 4.0 6.1 99 0.0 NE 7 9 4 5 1023.9 - 0.0
30/03:30am 6.9 5.0 6.8 99 0.0 NE 6 7 3 4 1024.0 - 0.0
30/03:00am 7.1 4.7 7.0 99 0.0 E 9 11 5 6 1024.3 1024.5 0.0
30/02:30am 7.0 5.0 6.9 99 0.0 ESE 7 9 4 5 1024.7 - 0.0
30/02:00am 7.3 5.5 7.2 99 0.0 E 6 9 3 5 1025.0 - 0.0
30/01:30am 7.4 5.4 7.1 98 0.1 ESE 7 11 4 6 1025.3 - 0.0
30/01:00am 8.1 5.9 7.8 98 0.1 ESE 9 13 5 7 1025.3 - 0.0
30/12:30am 9.0 7.4 8.7 98 0.1 E 7 11 4 6 1025.5 - 0.0
30/12:00am 9.5 7.3 9.2 98 0.1 E 11 15 6 8 1025.7 1026.0 0.0

Other Formats:

Comma delimited format used in spreadsheet applications
http://www.bom.gov.au/fwo/IDV60801/IDV60801.95825.axf

JavaScript Object Notation format (JSON) in row-major order
http://www.bom.gov.au/fwo/IDV60801/IDV60801.95825.json